Aeroporto :
LOGIN :

Iscrizione | Disclaimer

   EN    FR    IT 

 










Sommario :    VFR   VFR Marginale   IFR   IFR Intensivo   IFR Molto Intensivo
Visibilità : 
Base nubi : 
>= 8 km
>= 3000ft
5 / 8 km
1000 / 3000 ft
1500m / 5 km
500 / 1000 ft
800 / 1500m
200 / 500 ft
< 800m
< 200 ft
Simboli :   Temporali  Nebbia  Neve Forte  Precipitazioni Forti  Vento > 20 kt
SIGMETs :   Varie  Temporali  Ghiacco  Turbolenza  Onda orograficha  Ceneri Vulcaniche







- Altitudine del aeroporto : 26 ft


ETNT - Wittmundhaven AB

ULTIMO METAR :
  • 220620Z 31010KT 9999 BKN013 11/08 Q1016 GRN GRN BECMG WHT

METARs OBSOLETI :
  • 220520Z 30012KT 9999 BKN010 10/08 Q1016 GRN GRN BECMG WHT
  • 220420Z 31012KT 9000 BKN010 10/08 Q1015 GRN GRN BECMG WHT

TAF TAF ETNT
Valido dal 22 a 05 ore il 22 a 14 ore UTC


220411Z 2205/2214 31012KT 6000 NSW BKN010
BECMG 2205/2207 31012G22KT 8000 NSW BKN020
BECMG 2207/2209 31012G22KT 9999 NSW SCT020 BKN030 BY ETGL
Nessun NOTAM noto per questo aeroporto.



MetMap, La meteo Aeronautica in un colpo d'occhio ! - Copyright ORBIFLY Dicembre 2007 - Disclaimer

ORBIFLY MET'MAP TEAM :

Programmazione e sviluppo : Alexandra Zaïnal
Concezione e sviluppo : Baudouin d'Aumeries
Co-Programmazione e sviluppo : Marc-Olivier Méhu
Supporto tecnico e logistico : Manuel Goepfert
Aiuto per la traduzione : Arnaldo La Scala

Contatto : metmap@orbifly.com




FONTI E CREDITI :

   NOAA